Hudson, MI (49247)

9:35 PM EST on March 05, 2015 (GMT -0500)
Lenawee County | Change Station
CLOSE
Current Station
Airport
Location: Adrian,
Elevation: 797 ft
Nearby Weather Stations

Elev 797 ft 41.87 °N, 84.08 °W | Updated 42 minutes ago

Clear
Clear
9 °F
Feels Like 2 °F
N
4
Wind Variable Wind from WSW

Today
High -- | Low -- °F
--% Chance of Precip.
Yesterday
High -- | Low -- °F
Precip. -- in
7:06 AM 6:32 PM
Full, 100% visible
Pressure 30.56 in
Visibility 10.0 miles
Clouds Clear
Windchill 2 °F
Dew Point 0 °F
Humidity 67%
Rainfall 0.00 in
Snow Depth Not available.
UV 0 out of 12
Pollen .40 out of 12
Air Quality Not available.
Flu Activity Not available.
METAR KADG 060153Z AUTO 25003KT 10SM CLR M13/M18 A3049 RMK AO2 SLP347 T11281178 TSNO

More Conditions Fewer Conditions

Pressure 30.56 in
Visibility 10.0 miles
Clouds Clear
Windchill 2 °F
Dew Point 0 °F
Humidity 67%
Rainfall 0.00 in
Snow Depth Not available.
UV 0 out of 12
Pollen .40 out of 12
Air Quality Not available.
Flu Activity Not available.
METAR KADG 060153Z AUTO 25003KT 10SM CLR M13/M18 A3049 RMK AO2 SLP347 T11281178 TSNO

More Conditions Fewer Conditions

10-Day Weather Forecast

Almanac

Astronomy

Mar. 05, 2015 Rise Set
Actual Time
Civil Twilight
Nautical Twilight
Astronomical Twilight
Moon
Length of Visible Light
Length of Day
Tomorrow will be .
, % of the Moon is Illuminated

Today's Extremes

State Highs State Lows

Community

WunderPhotos

Upload Photos

1,803,126 photos uploaded!

WunderBlogs® & News

Nearby

Air Quality

  Air Quality AQ Index Pollutant
Not available.

Snow Depth

Station Depth Elevation

Earthquake Activity

City Distance Mag. Time & Date
Minimum magnitude displayed is 2.5.

Coastal Water Temperatures

Place Temperature

Nearby Weather Stations